sensor_id;sensor_type;location;lat;lon;timestamp;pressure;altitude;pressure_sealevel;temperature;humidity
3812;BME280;1921;49.368;11.068;2023-04-09T00:01:11;98343.59;;;7.35;99.15
3812;BME280;1921;49.368;11.068;2023-04-09T00:03:37;98359.44;;;7.42;99.34
3812;BME280;1921;49.368;11.068;2023-04-09T00:06:04;98379.47;;;7.59;99.22
3812;BME280;1921;49.368;11.068;2023-04-09T00:08:30;98376.88;;;7.59;99.08
3812;BME280;1921;49.368;11.068;2023-04-09T00:10:58;98433.81;;;7.90;99.28
3812;BME280;1921;49.368;11.068;2023-04-09T00:13:25;98377.56;;;7.51;99.25
3812;BME280;1921;49.368;11.068;2023-04-09T00:15:50;98365.84;;;7.47;99.57
3812;BME280;1921;49.368;11.068;2023-04-09T00:18:16;98396.66;;;7.70;99.30
3812;BME280;1921;49.368;11.068;2023-04-09T00:20:43;98400.66;;;7.64;99.47
3812;BME280;1921;49.368;11.068;2023-04-09T00:23:09;98372.66;;;7.48;99.03
3812;BME280;1921;49.368;11.068;2023-04-09T00:25:35;98394.34;;;7.67;99.21
3812;BME280;1921;49.368;11.068;2023-04-09T00:28:01;98402.25;;;7.75;99.45
3812;BME280;1921;49.368;11.068;2023-04-09T00:30:28;98429.44;;;7.90;99.05
3812;BME280;1921;49.368;11.068;2023-04-09T00:32:54;98360.34;;;7.50;98.99
3812;BME280;1921;49.368;11.068;2023-04-09T00:35:20;98381.13;;;7.60;98.73
3812;BME280;1921;49.368;11.068;2023-04-09T00:37:46;98312.63;;;6.95;98.19
3812;BME280;1921;49.368;11.068;2023-04-09T00:40:12;98348.25;;;7.12;98.15
3812;BME280;1921;49.368;11.068;2023-04-09T00:42:38;98388.22;;;7.39;98.49
3812;BME280;1921;49.368;11.068;2023-04-09T00:45:05;98380.59;;;7.37;98.52
3812;BME280;1921;49.368;11.068;2023-04-09T00:47:31;98337.88;;;7.03;98.75
3812;BME280;1921;49.368;11.068;2023-04-09T00:50:00;98411.19;;;7.24;99.95
3812;BME280;1921;49.368;11.068;2023-04-09T00:52:26;98359.97;;;6.78;100.00
3812;BME280;1921;49.368;11.068;2023-04-09T00:54:55;98374.84;;;6.95;100.00
3812;BME280;1921;49.368;11.068;2023-04-09T00:57:21;98373.91;;;7.06;99.97
3812;BME280;1921;49.368;11.068;2023-04-09T00:59:46;98380.63;;;7.08;100.00
3812;BME280;1921;49.368;11.068;2023-04-09T01:02:12;98356.41;;;6.88;100.00
3812;BME280;1921;49.368;11.068;2023-04-09T01:04:40;98387.28;;;7.11;100.00
3812;BME280;1921;49.368;11.068;2023-04-09T01:10:32;98429.06;;;7.37;100.00
3812;BME280;1921;49.368;11.068;2023-04-09T01:13:10;98366.78;;;7.08;100.00
3812;BME280;1921;49.368;11.068;2023-04-09T01:15:46;98282.19;;;6.58;100.00
3812;BME280;1921;49.368;11.068;2023-04-09T01:18:35;98387.69;;;7.25;100.00
3812;BME280;1921;49.368;11.068;2023-04-09T01:21:08;98362.47;;;7.08;100.00
3812;BME280;1921;49.368;11.068;2023-04-09T01:27:01;98351.78;;;7.11;100.00
3812;BME280;1921;49.368;11.068;2023-04-09T01:29:32;98344.97;;;7.10;100.00
3812;BME280;1921;49.368;11.068;2023-04-09T01:32:01;98411.03;;;7.45;100.00
3812;BME280;1921;49.368;11.068;2023-04-09T01:34:28;98343.59;;;7.06;100.00
3812;BME280;1921;49.368;11.068;2023-04-09T01:36:58;98398.06;;;7.35;99.96
3812;BME280;1921;49.368;11.068;2023-04-09T01:39:25;98397.41;;;7.33;100.00
3812;BME280;1921;49.368;11.068;2023-04-09T01:41:52;98357.38;;;7.07;99.94
3812;BME280;1921;49.368;11.068;2023-04-09T01:44:18;98384.28;;;7.25;99.53
3812;BME280;1921;49.368;11.068;2023-04-09T01:46:48;98392.75;;;7.27;99.47
3812;BME280;1921;49.368;11.068;2023-04-09T01:49:16;98409.13;;;7.37;99.59
3812;BME280;1921;49.368;11.068;2023-04-09T01:51:42;98373.09;;;7.05;99.36
3812;BME280;1921;49.368;11.068;2023-04-09T01:54:08;98406.13;;;7.22;99.14
3812;BME280;1921;49.368;11.068;2023-04-09T01:56:43;98363.81;;;6.93;98.87
3812;BME280;1921;49.368;11.068;2023-04-09T01:59:09;98336.47;;;6.69;98.85
3812;BME280;1921;49.368;11.068;2023-04-09T02:01:44;98369.81;;;6.84;98.71
3812;BME280;1921;49.368;11.068;2023-04-09T02:04:42;98404.47;;;6.92;98.71
3812;BME280;1921;49.368;11.068;2023-04-09T02:07:24;98390.09;;;6.69;99.08
3812;BME280;1921;49.368;11.068;2023-04-09T02:09:55;98435.59;;;6.92;98.63
3812;BME280;1921;49.368;11.068;2023-04-09T02:12:24;98381.22;;;6.52;99.07
3812;BME280;1921;49.368;11.068;2023-04-09T02:14:51;98391.56;;;6.52;99.13
3812;BME280;1921;49.368;11.068;2023-04-09T02:17:18;98406.16;;;6.53;98.74
3812;BME280;1921;49.368;11.068;2023-04-09T02:19:46;98429.78;;;6.60;98.60
3812;BME280;1921;49.368;11.068;2023-04-09T02:22:13;98334.94;;;5.98;97.97
3812;BME280;1921;49.368;11.068;2023-04-09T02:24:39;98405.38;;;6.32;98.06
3812;BME280;1921;49.368;11.068;2023-04-09T02:27:05;98389.78;;;6.12;98.23
3812;BME280;1921;49.368;11.068;2023-04-09T02:29:31;98381.66;;;5.96;97.58
3812;BME280;1921;49.368;11.068;2023-04-09T02:31:57;98377.06;;;5.79;97.13
3812;BME280;1921;49.368;11.068;2023-04-09T02:34:23;98374.16;;;5.72;97.73
3812;BME280;1921;49.368;11.068;2023-04-09T02:36:49;98387.66;;;5.76;97.53
3812;BME280;1921;49.368;11.068;2023-04-09T02:39:15;98346.34;;;5.44;97.82
3812;BME280;1921;49.368;11.068;2023-04-09T02:41:41;98418.47;;;5.79;97.26
3812;BME280;1921;49.368;11.068;2023-04-09T02:44:06;98381.22;;;5.49;97.31
3812;BME280;1921;49.368;11.068;2023-04-09T02:46:32;98370.94;;;5.38;97.76
3812;BME280;1921;49.368;11.068;2023-04-09T02:48:58;98374.59;;;5.35;97.38
3812;BME280;1921;49.368;11.068;2023-04-09T02:51:23;98379.47;;;5.29;97.64
3812;BME280;1921;49.368;11.068;2023-04-09T02:53:49;98408.31;;;5.34;97.29
3812;BME280;1921;49.368;11.068;2023-04-09T02:56:15;98388.56;;;5.12;96.60
3812;BME280;1921;49.368;11.068;2023-04-09T02:58:41;98362.22;;;4.86;96.28
3812;BME280;1921;49.368;11.068;2023-04-09T03:01:06;98371.53;;;4.77;95.63
3812;BME280;1921;49.368;11.068;2023-04-09T03:03:32;98377.06;;;4.73;95.43
3812;BME280;1921;49.368;11.068;2023-04-09T03:05:58;98414.88;;;4.85;95.79
3812;BME280;1921;49.368;11.068;2023-04-09T03:08:24;98363.72;;;4.45;96.50
3812;BME280;1921;49.368;11.068;2023-04-09T03:10:49;98336.78;;;4.16;97.11
3812;BME280;1921;49.368;11.068;2023-04-09T03:13:15;98371.75;;;4.31;97.44
3812;BME280;1921;49.368;11.068;2023-04-09T03:15:41;98392.75;;;4.38;98.68
3812;BME280;1921;49.368;11.068;2023-04-09T03:18:06;98384.31;;;4.24;98.93
3812;BME280;1921;49.368;11.068;2023-04-09T03:20:32;98358.00;;;3.97;97.88
3812;BME280;1921;49.368;11.068;2023-04-09T03:22:58;98359.31;;;3.91;99.77
3812;BME280;1921;49.368;11.068;2023-04-09T03:25:23;98404.56;;;3.95;100.00
3812;BME280;1921;49.368;11.068;2023-04-09T03:27:49;98342.97;;;3.57;100.00
3812;BME280;1921;49.368;11.068;2023-04-09T03:30:15;98365.41;;;3.79;100.00
3812;BME280;1921;49.368;11.068;2023-04-09T03:32:40;98375.94;;;3.76;100.00
3812;BME280;1921;49.368;11.068;2023-04-09T03:35:07;98362.69;;;3.69;100.00
3812;BME280;1921;49.368;11.068;2023-04-09T03:37:32;98365.13;;;3.60;100.00
3812;BME280;1921;49.368;11.068;2023-04-09T03:39:58;98352.47;;;3.57;100.00
3812;BME280;1921;49.368;11.068;2023-04-09T03:42:24;98348.34;;;3.43;100.00
3812;BME280;1921;49.368;11.068;2023-04-09T03:44:52;98411.13;;;3.77;100.00
3812;BME280;1921;49.368;11.068;2023-04-09T03:47:19;98379.41;;;3.53;100.00
3812;BME280;1921;49.368;11.068;2023-04-09T03:49:45;98447.25;;;3.88;100.00
3812;BME280;1921;49.368;11.068;2023-04-09T03:52:10;98382.91;;;3.40;100.00
3812;BME280;1921;49.368;11.068;2023-04-09T03:54:36;98422.31;;;3.54;100.00
3812;BME280;1921;49.368;11.068;2023-04-09T03:57:02;98417.41;;;3.50;100.00
3812;BME280;1921;49.368;11.068;2023-04-09T03:59:28;98380.84;;;3.21;100.00
3812;BME280;1921;49.368;11.068;2023-04-09T04:01:54;98423.13;;;3.43;100.00
3812;BME280;1921;49.368;11.068;2023-04-09T04:04:20;98366.97;;;3.00;100.00
3812;BME280;1921;49.368;11.068;2023-04-09T04:06:46;98449.00;;;3.41;100.00
3812;BME280;1921;49.368;11.068;2023-04-09T04:09:11;98386.06;;;3.09;100.00
3812;BME280;1921;49.368;11.068;2023-04-09T04:11:37;98354.72;;;2.91;100.00
3812;BME280;1921;49.368;11.068;2023-04-09T04:14:03;98378.47;;;3.07;100.00
3812;BME280;1921;49.368;11.068;2023-04-09T04:16:28;98376.59;;;3.09;100.00
3812;BME280;1921;49.368;11.068;2023-04-09T04:18:54;98384.56;;;3.06;100.00
3812;BME280;1921;49.368;11.068;2023-04-09T04:21:20;98379.22;;;2.96;100.00
3812;BME280;1921;49.368;11.068;2023-04-09T04:23:46;98388.38;;;3.01;100.00
3812;BME280;1921;49.368;11.068;2023-04-09T04:26:11;98413.34;;;3.00;100.00
3812;BME280;1921;49.368;11.068;2023-04-09T04:28:38;98399.69;;;2.87;99.90
3812;BME280;1921;49.368;11.068;2023-04-09T04:31:11;98425.41;;;3.00;100.00
3812;BME280;1921;49.368;11.068;2023-04-09T04:33:40;98414.41;;;2.85;99.93
3812;BME280;1921;49.368;11.068;2023-04-09T04:36:08;98436.34;;;2.90;100.00
3812;BME280;1921;49.368;11.068;2023-04-09T04:38:35;98446.09;;;2.98;100.00
3812;BME280;1921;49.368;11.068;2023-04-09T04:41:01;98437.28;;;2.89;100.00
3812;BME280;1921;49.368;11.068;2023-04-09T04:43:27;98309.53;;;2.02;100.00
3812;BME280;1921;49.368;11.068;2023-04-09T04:45:53;98407.06;;;2.67;100.00
3812;BME280;1921;49.368;11.068;2023-04-09T04:48:19;98405.75;;;2.62;100.00
3812;BME280;1921;49.368;11.068;2023-04-09T04:50:46;98443.56;;;2.85;100.00
3812;BME280;1921;49.368;11.068;2023-04-09T04:53:11;98454.38;;;2.90;100.00
3812;BME280;1921;49.368;11.068;2023-04-09T04:55:37;98401.41;;;2.62;100.00
3812;BME280;1921;49.368;11.068;2023-04-09T04:58:05;98381.13;;;2.58;100.00
3812;BME280;1921;49.368;11.068;2023-04-09T05:00:31;98394.63;;;2.85;100.00
3812;BME280;1921;49.368;11.068;2023-04-09T05:02:57;98388.38;;;3.01;100.00
3812;BME280;1921;49.368;11.068;2023-04-09T05:05:23;98458.25;;;3.68;100.00
3812;BME280;1921;49.368;11.068;2023-04-09T05:07:49;98425.91;;;3.75;100.00
3812;BME280;1921;49.368;11.068;2023-04-09T05:10:14;98456.81;;;4.32;100.00
3812;BME280;1921;49.368;11.068;2023-04-09T05:12:40;98419.59;;;4.46;100.00
3812;BME280;1921;49.368;11.068;2023-04-09T05:15:06;98419.56;;;4.80;100.00
3812;BME280;1921;49.368;11.068;2023-04-09T05:17:32;98427.53;;;5.20;100.00
3812;BME280;1921;49.368;11.068;2023-04-09T05:19:58;98408.09;;;5.37;100.00
3812;BME280;1921;49.368;11.068;2023-04-09T05:22:24;98414.56;;;5.84;100.00
3812;BME280;1921;49.368;11.068;2023-04-09T05:24:50;98432.25;;;6.31;100.00
3812;BME280;1921;49.368;11.068;2023-04-09T05:27:16;98453.69;;;6.73;100.00
3812;BME280;1921;49.368;11.068;2023-04-09T05:29:44;98479.56;;;7.13;98.73
3812;BME280;1921;49.368;11.068;2023-04-09T05:32:10;98425.78;;;7.06;98.22
3812;BME280;1921;49.368;11.068;2023-04-09T05:34:35;98323.00;;;6.66;96.73
3812;BME280;1921;49.368;11.068;2023-04-09T05:37:02;98411.97;;;7.63;95.76
3812;BME280;1921;49.368;11.068;2023-04-09T05:39:27;98419.06;;;7.90;94.62
3812;BME280;1921;49.368;11.068;2023-04-09T05:41:53;98406.94;;;8.18;93.17
3812;BME280;1921;49.368;11.068;2023-04-09T05:44:19;98479.38;;;8.78;92.00
3812;BME280;1921;49.368;11.068;2023-04-09T05:46:45;98434.63;;;8.74;91.29
3812;BME280;1921;49.368;11.068;2023-04-09T05:49:10;98435.00;;;8.79;90.35
3812;BME280;1921;49.368;11.068;2023-04-09T05:51:36;98428.16;;;8.78;89.00
3812;BME280;1921;49.368;11.068;2023-04-09T05:54:02;98468.50;;;9.10;86.18
3812;BME280;1921;49.368;11.068;2023-04-09T05:56:28;98402.84;;;8.53;78.84
3812;BME280;1921;49.368;11.068;2023-04-09T05:58:54;98454.44;;;8.57;83.82
3812;BME280;1921;49.368;11.068;2023-04-09T06:01:20;98430.41;;;8.46;84.61
3812;BME280;1921;49.368;11.068;2023-04-09T06:03:46;98429.13;;;8.50;87.31
3812;BME280;1921;49.368;11.068;2023-04-09T06:06:12;98477.59;;;8.78;87.77
3812;BME280;1921;49.368;11.068;2023-04-09T06:08:38;98436.22;;;8.57;87.63
3812;BME280;1921;49.368;11.068;2023-04-09T06:11:08;98422.09;;;8.60;87.90
3812;BME280;1921;49.368;11.068;2023-04-09T06:13:34;98488.38;;;8.83;85.00
3812;BME280;1921;49.368;11.068;2023-04-09T06:16:06;98490.28;;;8.81;83.76
3812;BME280;1921;49.368;11.068;2023-04-09T06:18:33;98443.97;;;8.40;81.66
3812;BME280;1921;49.368;11.068;2023-04-09T06:21:03;98404.81;;;8.31;84.43
3812;BME280;1921;49.368;11.068;2023-04-09T06:23:29;98435.09;;;8.60;86.03
3812;BME280;1921;49.368;11.068;2023-04-09T06:25:55;98461.91;;;8.88;85.92
3812;BME280;1921;49.368;11.068;2023-04-09T06:28:20;98438.19;;;8.73;86.14
3812;BME280;1921;49.368;11.068;2023-04-09T06:30:46;98400.09;;;8.17;82.83
3812;BME280;1921;49.368;11.068;2023-04-09T06:33:13;98447.84;;;8.81;86.87
3812;BME280;1921;49.368;11.068;2023-04-09T06:35:39;98428.50;;;8.66;84.30
3812;BME280;1921;49.368;11.068;2023-04-09T06:38:05;98433.09;;;8.44;79.82
3812;BME280;1921;49.368;11.068;2023-04-09T06:40:31;98432.88;;;8.28;81.98
3812;BME280;1921;49.368;11.068;2023-04-09T06:42:57;98478.00;;;8.36;87.18
3812;BME280;1921;49.368;11.068;2023-04-09T06:45:23;98464.22;;;8.17;85.86
3812;BME280;1921;49.368;11.068;2023-04-09T06:47:48;98439.31;;;8.33;82.55
3812;BME280;1921;49.368;11.068;2023-04-09T06:50:14;98418.94;;;7.63;81.83
3812;BME280;1921;49.368;11.068;2023-04-09T06:52:40;98469.84;;;8.22;80.76
3812;BME280;1921;49.368;11.068;2023-04-09T06:55:06;98463.66;;;8.32;85.40
3812;BME280;1921;49.368;11.068;2023-04-09T06:57:32;98468.81;;;8.79;83.42
3812;BME280;1921;49.368;11.068;2023-04-09T06:59:58;98404.69;;;8.70;78.22
3812;BME280;1921;49.368;11.068;2023-04-09T07:02:24;98449.06;;;8.86;83.50
3812;BME280;1921;49.368;11.068;2023-04-09T07:04:50;98439.81;;;9.37;80.49
3812;BME280;1921;49.368;11.068;2023-04-09T07:07:16;98424.31;;;8.55;76.05
3812;BME280;1921;49.368;11.068;2023-04-09T07:09:43;98455.00;;;8.79;74.75
3812;BME280;1921;49.368;11.068;2023-04-09T07:12:09;98457.16;;;8.56;79.20
3812;BME280;1921;49.368;11.068;2023-04-09T07:14:35;98488.38;;;8.83;76.05
3812;BME280;1921;49.368;11.068;2023-04-09T07:17:00;98493.28;;;9.50;79.96
3812;BME280;1921;49.368;11.068;2023-04-09T07:19:26;98475.75;;;10.13;79.37
3812;BME280;1921;49.368;11.068;2023-04-09T07:21:52;98476.91;;;10.37;73.91
3812;BME280;1921;49.368;11.068;2023-04-09T07:24:18;98475.16;;;10.45;68.71
3812;BME280;1921;49.368;11.068;2023-04-09T07:26:43;98528.38;;;10.61;67.22
3812;BME280;1921;49.368;11.068;2023-04-09T07:29:09;98482.63;;;8.80;75.67
3812;BME280;1921;49.368;11.068;2023-04-09T07:31:35;98463.66;;;8.32;77.34
3812;BME280;1921;49.368;11.068;2023-04-09T07:34:01;98503.94;;;8.56;77.83
3812;BME280;1921;49.368;11.068;2023-04-09T07:36:26;98497.78;;;8.57;77.61
3812;BME280;1921;49.368;11.068;2023-04-09T07:38:53;98366.41;;;8.25;74.51
3812;BME280;1921;49.368;11.068;2023-04-09T07:41:19;98479.19;;;9.52;77.37
3812;BME280;1921;49.368;11.068;2023-04-09T07:43:45;98471.06;;;9.73;73.14
3812;BME280;1921;49.368;11.068;2023-04-09T07:46:16;98509.91;;;9.66;73.20
3812;BME280;1921;49.368;11.068;2023-04-09T07:48:42;98472.50;;;9.04;74.26
3812;BME280;1921;49.368;11.068;2023-04-09T07:51:08;98481.47;;;9.55;74.74
3812;BME280;1921;49.368;11.068;2023-04-09T07:53:33;98515.25;;;9.65;75.30
3812;BME280;1921;49.368;11.068;2023-04-09T07:55:59;98522.34;;;10.34;74.36
3812;BME280;1921;49.368;11.068;2023-04-09T07:58:25;98466.94;;;11.00;67.08
3812;BME280;1921;49.368;11.068;2023-04-09T08:00:51;98448.38;;;11.28;62.44
3812;BME280;1921;49.368;11.068;2023-04-09T08:03:17;98448.44;;;11.93;57.93
3812;BME280;1921;49.368;11.068;2023-04-09T08:05:43;98493.13;;;12.47;58.57
3812;BME280;1921;49.368;11.068;2023-04-09T08:08:10;98460.09;;;12.85;57.08
3812;BME280;1921;49.368;11.068;2023-04-09T08:10:35;98469.53;;;13.34;56.84
3812;BME280;1921;49.368;11.068;2023-04-09T08:13:01;98455.94;;;13.61;54.25
3812;BME280;1921;49.368;11.068;2023-04-09T08:15:27;98464.66;;;14.14;54.03
3812;BME280;1921;49.368;11.068;2023-04-09T08:17:53;98463.56;;;14.61;50.20
3812;BME280;1921;49.368;11.068;2023-04-09T08:20:18;98517.69;;;11.97;55.20
3812;BME280;1921;49.368;11.068;2023-04-09T08:22:44;98483.63;;;9.95;65.04
3812;BME280;1921;49.368;11.068;2023-04-09T08:25:10;98467.63;;;10.68;66.15
3812;BME280;1921;49.368;11.068;2023-04-09T08:27:35;98482.38;;;10.51;63.58
3812;BME280;1921;49.368;11.068;2023-04-09T08:30:02;98503.03;;;9.30;67.49
3812;BME280;1921;49.368;11.068;2023-04-09T08:32:28;98471.63;;;10.29;67.23
3812;BME280;1921;49.368;11.068;2023-04-09T08:34:54;98464.59;;;11.97;59.62
3812;BME280;1921;49.368;11.068;2023-04-09T08:37:20;98517.00;;;11.71;60.82
3812;BME280;1921;49.368;11.068;2023-04-09T08:39:46;98434.25;;;13.22;55.85
3812;BME280;1921;49.368;11.068;2023-04-09T08:42:13;98490.84;;;14.96;49.92
3812;BME280;1921;49.368;11.068;2023-04-09T08:44:40;98473.72;;;16.22;46.96
3812;BME280;1921;49.368;11.068;2023-04-09T08:47:08;98480.38;;;13.54;51.93
3812;BME280;1921;49.368;11.068;2023-04-09T08:49:39;98451.44;;;13.24;54.17
3812;BME280;1921;49.368;11.068;2023-04-09T08:52:05;98451.78;;;15.44;49.16
3812;BME280;1921;49.368;11.068;2023-04-09T08:54:32;98453.00;;;16.82;44.06
3812;BME280;1921;49.368;11.068;2023-04-09T08:56:58;98500.75;;;16.37;43.90
3812;BME280;1921;49.368;11.068;2023-04-09T08:59:23;98445.13;;;17.69;41.88
3812;BME280;1921;49.368;11.068;2023-04-09T09:02:06;98357.28;;;14.27;45.06
3812;BME280;1921;49.368;11.068;2023-04-09T09:04:47;98447.38;;;16.15;44.53
3812;BME280;1921;49.368;11.068;2023-04-09T09:07:14;98489.91;;;15.55;46.37
3812;BME280;1921;49.368;11.068;2023-04-09T09:09:54;98377.00;;;16.37;41.82
3812;BME280;1921;49.368;11.068;2023-04-09T09:12:40;98436.19;;;16.41;42.36
3812;BME280;1921;49.368;11.068;2023-04-09T09:15:27;98478.03;;;15.80;43.41
3812;BME280;1921;49.368;11.068;2023-04-09T09:17:58;98493.31;;;14.83;45.88
3812;BME280;1921;49.368;11.068;2023-04-09T09:20:25;98432.09;;;16.39;42.29
3812;BME280;1921;49.368;11.068;2023-04-09T09:22:54;98434.25;;;16.22;43.25
3812;BME280;1921;49.368;11.068;2023-04-09T09:25:20;98495.50;;;17.13;42.07
3812;BME280;1921;49.368;11.068;2023-04-09T09:27:49;98483.88;;;17.56;40.12
3812;BME280;1921;49.368;11.068;2023-04-09T09:30:26;98463.03;;;17.06;38.95
3812;BME280;1921;49.368;11.068;2023-04-09T09:33:09;98463.41;;;17.71;37.71
3812;BME280;1921;49.368;11.068;2023-04-09T09:35:50;98432.78;;;18.10;35.78
3812;BME280;1921;49.368;11.068;2023-04-09T09:38:16;98443.94;;;17.85;37.40
3812;BME280;1921;49.368;11.068;2023-04-09T09:40:43;98480.47;;;18.28;37.13
3812;BME280;1921;49.368;11.068;2023-04-09T09:43:09;98471.00;;;18.92;35.90
3812;BME280;1921;49.368;11.068;2023-04-09T09:45:39;98432.28;;;19.42;35.12
3812;BME280;1921;49.368;11.068;2023-04-09T09:48:11;98433.34;;;19.03;36.07
3812;BME280;1921;49.368;11.068;2023-04-09T09:50:38;98419.47;;;19.14;36.08
3812;BME280;1921;49.368;11.068;2023-04-09T09:53:08;98440.06;;;19.69;34.05
3812;BME280;1921;49.368;11.068;2023-04-09T09:55:40;98450.78;;;20.85;32.61
3812;BME280;1921;49.368;11.068;2023-04-09T09:58:39;98483.91;;;21.61;31.99
3812;BME280;1921;49.368;11.068;2023-04-09T10:01:09;98448.25;;;21.57;30.89
3812;BME280;1921;49.368;11.068;2023-04-09T10:03:38;98446.88;;;20.33;31.55
3812;BME280;1921;49.368;11.068;2023-04-09T10:06:05;98467.59;;;21.28;31.11
3812;BME280;1921;49.368;11.068;2023-04-09T10:08:33;98366.84;;;21.09;29.41
3812;BME280;1921;49.368;11.068;2023-04-09T10:11:00;98403.66;;;20.87;30.46
3812;BME280;1921;49.368;11.068;2023-04-09T10:13:52;98429.50;;;16.46;37.10
3812;BME280;1921;49.368;11.068;2023-04-09T10:16:21;98433.31;;;15.38;40.10
3812;BME280;1921;49.368;11.068;2023-04-09T10:18:47;98460.75;;;15.71;39.71
3812;BME280;1921;49.368;11.068;2023-04-09T10:21:37;98471.09;;;18.59;35.22
3812;BME280;1921;49.368;11.068;2023-04-09T10:24:05;98442.31;;;19.33;32.88
3812;BME280;1921;49.368;11.068;2023-04-09T10:26:34;98460.31;;;20.56;31.56
3812;BME280;1921;49.368;11.068;2023-04-09T10:29:13;98406.75;;;20.29;30.55
3812;BME280;1921;49.368;11.068;2023-04-09T10:32:05;98434.88;;;19.80;31.77
3812;BME280;1921;49.368;11.068;2023-04-09T10:34:36;98452.00;;;20.28;31.30
3812;BME280;1921;49.368;11.068;2023-04-09T10:37:03;98425.75;;;15.71;39.17
3812;BME280;1921;49.368;11.068;2023-04-09T10:39:31;98451.81;;;13.67;43.11
3812;BME280;1921;49.368;11.068;2023-04-09T10:42:07;98417.53;;;14.21;42.45
3812;BME280;1921;49.368;11.068;2023-04-09T10:44:38;98422.63;;;11.90;47.18
3812;BME280;1921;49.368;11.068;2023-04-09T10:47:09;98467.22;;;12.05;48.29
3812;BME280;1921;49.368;11.068;2023-04-09T10:49:40;98435.16;;;12.11;48.60
3812;BME280;1921;49.368;11.068;2023-04-09T10:52:08;98411.56;;;12.44;46.67
3812;BME280;1921;49.368;11.068;2023-04-09T10:54:39;98180.78;;;11.16;45.83
3812;BME280;1921;49.368;11.068;2023-04-09T10:57:19;98408.34;;;12.64;45.81
3812;BME280;1921;49.368;11.068;2023-04-09T10:59:54;98227.00;;;10.74;46.42
3812;BME280;1921;49.368;11.068;2023-04-09T11:05:24;98472.06;;;13.73;43.62
3812;BME280;1921;49.368;11.068;2023-04-09T11:10:32;98395.31;;;12.09;46.90
3812;BME280;1921;49.368;11.068;2023-04-09T11:12:58;98425.94;;;12.79;45.34
3812;BME280;1921;49.368;11.068;2023-04-09T11:15:24;98443.22;;;14.11;41.75
3812;BME280;1921;49.368;11.068;2023-04-09T11:17:50;98382.38;;;13.63;41.61
3812;BME280;1921;49.368;11.068;2023-04-09T11:20:20;98429.94;;;14.71;41.35
3812;BME280;1921;49.368;11.068;2023-04-09T11:22:47;98403.75;;;12.98;44.44
3812;BME280;1921;49.368;11.068;2023-04-09T11:25:21;98459.53;;;11.95;45.18
3812;BME280;1921;49.368;11.068;2023-04-09T11:27:47;98463.44;;;11.67;46.67
3812;BME280;1921;49.368;11.068;2023-04-09T11:30:13;98413.28;;;11.79;45.07
3812;BME280;1921;49.368;11.068;2023-04-09T11:32:39;98384.78;;;12.33;43.90
3812;BME280;1921;49.368;11.068;2023-04-09T11:35:17;98389.03;;;12.74;42.55
3812;BME280;1921;49.368;11.068;2023-04-09T11:37:44;98407.38;;;13.51;42.02
3812;BME280;1921;49.368;11.068;2023-04-09T11:40:24;98441.88;;;14.89;39.47
3812;BME280;1921;49.368;11.068;2023-04-09T11:42:53;98397.81;;;14.25;39.81
3812;BME280;1921;49.368;11.068;2023-04-09T11:45:27;98397.25;;;13.25;42.14
3812;BME280;1921;49.368;11.068;2023-04-09T11:47:53;98426.94;;;13.09;42.42
3812;BME280;1921;49.368;11.068;2023-04-09T11:50:20;98428.66;;;14.08;39.67
3812;BME280;1921;49.368;11.068;2023-04-09T11:52:47;98434.78;;;13.63;40.79
3812;BME280;1921;49.368;11.068;2023-04-09T11:57:51;98430.44;;;13.32;42.04
3812;BME280;1921;49.368;11.068;2023-04-09T12:00:19;98390.94;;;14.09;40.21
3812;BME280;1921;49.368;11.068;2023-04-09T12:02:47;98397.69;;;13.51;40.21
3812;BME280;1921;49.368;11.068;2023-04-09T12:05:23;98419.84;;;13.26;41.16
3812;BME280;1921;49.368;11.068;2023-04-09T12:07:49;98415.44;;;13.64;40.77
3812;BME280;1921;49.368;11.068;2023-04-09T12:10:15;98436.81;;;13.76;41.82
3812;BME280;1921;49.368;11.068;2023-04-09T12:12:46;98389.28;;;12.56;42.42
3812;BME280;1921;49.368;11.068;2023-04-09T12:15:25;98435.88;;;13.23;42.17
3812;BME280;1921;49.368;11.068;2023-04-09T12:17:57;98438.09;;;12.72;42.63
3812;BME280;1921;49.368;11.068;2023-04-09T12:20:42;98410.66;;;12.99;43.31
3812;BME280;1921;49.368;11.068;2023-04-09T12:23:10;98419.16;;;14.22;40.59
3812;BME280;1921;49.368;11.068;2023-04-09T12:25:39;98442.25;;;14.86;39.53
3812;BME280;1921;49.368;11.068;2023-04-09T12:28:06;98387.88;;;15.22;38.58
3812;BME280;1921;49.368;11.068;2023-04-09T12:30:33;98411.75;;;14.25;39.22
3812;BME280;1921;49.368;11.068;2023-04-09T12:32:59;98377.69;;;15.13;39.39
3812;BME280;1921;49.368;11.068;2023-04-09T12:35:25;98391.31;;;17.31;35.88
3812;BME280;1921;49.368;11.068;2023-04-09T12:37:51;98427.09;;;18.91;33.63
3812;BME280;1921;49.368;11.068;2023-04-09T12:40:18;98408.78;;;20.52;31.59
3812;BME280;1921;49.368;11.068;2023-04-09T12:42:44;98412.97;;;22.15;28.88
3812;BME280;1921;49.368;11.068;2023-04-09T12:45:16;98375.16;;;23.34;26.87
3812;BME280;1921;49.368;11.068;2023-04-09T12:47:43;98392.47;;;21.15;28.72
3812;BME280;1921;49.368;11.068;2023-04-09T12:50:10;98370.69;;;22.37;26.54
3812;BME280;1921;49.368;11.068;2023-04-09T12:52:36;98391.97;;;17.39;32.73
3812;BME280;1921;49.368;11.068;2023-04-09T12:55:04;98429.69;;;15.39;37.22
3812;BME280;1921;49.368;11.068;2023-04-09T12:57:30;98420.84;;;13.85;39.46
3812;BME280;1921;49.368;11.068;2023-04-09T12:59:56;98380.84;;;13.31;40.83
3812;BME280;1921;49.368;11.068;2023-04-09T13:02:22;98370.59;;;12.67;42.09
3812;BME280;1921;49.368;11.068;2023-04-09T13:04:50;98373.19;;;13.21;41.65
3812;BME280;1921;49.368;11.068;2023-04-09T13:07:17;98365.78;;;13.85;40.09
3812;BME280;1921;49.368;11.068;2023-04-09T13:09:47;98401.06;;;14.12;40.39
3812;BME280;1921;49.368;11.068;2023-04-09T13:12:16;98374.50;;;13.48;41.61
3812;BME280;1921;49.368;11.068;2023-04-09T13:14:44;98384.00;;;13.64;42.14
3812;BME280;1921;49.368;11.068;2023-04-09T13:17:10;98355.53;;;13.15;42.06
3812;BME280;1921;49.368;11.068;2023-04-09T13:19:36;98412.94;;;14.38;40.08
3812;BME280;1921;49.368;11.068;2023-04-09T13:22:02;98359.78;;;14.65;38.64
3812;BME280;1921;49.368;11.068;2023-04-09T13:24:30;98367.84;;;15.43;37.49
3812;BME280;1921;49.368;11.068;2023-04-09T13:26:56;98359.34;;;15.62;37.65
3812;BME280;1921;49.368;11.068;2023-04-09T13:29:22;98336.44;;;16.19;37.27
3812;BME280;1921;49.368;11.068;2023-04-09T13:31:48;98359.50;;;17.45;34.72
3812;BME280;1921;49.368;11.068;2023-04-09T13:34:13;98275.69;;;17.61;33.99